Terminal Aerodrome Forecast
Issued by NWS

Home | Current Version | Previous Version | Text Only | Print | Product List | Glossary On
Versions: 1 2 3 4 5 6 7 8 9 10 11 12 13 14 15 16 17 18 19 20
000
FTUS46 KSEW 280200 AAA
TAFOLM
TAF AMD
KOLM 280204Z 2802/2824 21004KT P6SM SCT009 OVC015
      TEMPO 2802/2806 3SM BR OVC009
     FM280600 23002KT 2SM BR OVC004
     FM280900 00000KT 1/2SM FG OVC004
     FM282100 11004KT P6SM BKN050=

USA.gov is the U.S. government's official web portal to all federal, state and local government web resources and services.